Francis, Mississippi
Current Conditions -  °F | °C
As of 8:55 PM on Sunday 23 Nov 2014 (Local Time) from KRNV Reporting Station
Clear Clear  
Wind Chill: 60°   Ceiling: Unl
Heat Index: 60°   Visibility: 10mi
Dew Point: 59°   Wind: 13mph
Humidity: 95%   Direction: 190°S
Pressure: 29.5"   Gusts: 18mph
Location:  34.0609°N, 90.7985°W
Report Text: KRNV 240255Z AUTO 19011G16KT 10SM CLR 16/15 A2950 RMK AO2 T01580150
Loading
Personal Weather Stations






























Interactive Weather Map New forecast layout! Learn more

10-Day Weather Forecast

Advertisements
Track Severe Weather on mobile